EDQM

Hof-Plauen Airport

Hof, Germany
METAR EDQM 221550Z 23008KT 190V260 CAVOK 22/07 Q1014
Observed Flight Rules
Apr-22 @ 15:50 UTC (6 hours ago) Visual Flight Rules
Wind Visibility Clouds
230° at 8 knots 10,000+ meters
  • Clear skies
Temperatures Readings
Current 22°C / 72°F
Dewpoint 7°C / 45°F
Humidity 38%
Altimeter 29.94" Hg
Pressure 1014 hPa
Elevation 568
METAR EDQM 221550Z 23008KT 190V260 CAVOK 22/07 Q1014
Observed Flight Rules
Apr-22 @ 15:50 UTC
(6 hours ago)
VFR
Wind Visibility
230° at 8 knots 10,000+ meters
Clouds
  • Clear skies
Temperature Dewpoint
22°C / 72°F 7°C / 45°F
Humidity Altimeter Pressure
38% 29.94" Hg 1014 hPa